Terminal Aerodrome Forecast
Issued by NWS

Home | Current Version | Previous Version | Text Only | Print | Product List | Glossary On
Versions: 1 2 3 4 5 6 7 8 9 10 11 12 13 14 15 16 17 18
000
FTUS41 KBGM 271720
TAFRME
TAF
KRME 271720Z 2718/2818 25010G15KT P6SM BKN050
      TEMPO 2718/2719 -SHRA
     FM280000 10004KT P6SM OVC060 PROB30 2808/2813 -SHRA
     FM281300 29010KT P6SM OVC040=

USA.gov is the U.S. government's official web portal to all federal, state and local government web resources and services.